sensor_id;sensor_type;location;lat;lon;timestamp;P1;durP1;ratioP1;P2;durP2;ratioP2
20743;SDS011;56303;52.160;-0.428;2023-10-19T00:01:59;2.47;;;1.33;;
20743;SDS011;56303;52.160;-0.428;2023-10-19T00:04:26;1.20;;;1.10;;
20743;SDS011;56303;52.160;-0.428;2023-10-19T00:06:59;1.17;;;1.07;;
20743;SDS011;56303;52.160;-0.428;2023-10-19T00:09:25;1.13;;;0.90;;
20743;SDS011;56303;52.160;-0.428;2023-10-19T00:11:57;1.40;;;1.30;;
20743;SDS011;56303;52.160;-0.428;2023-10-19T00:14:24;1.00;;;1.00;;
20743;SDS011;56303;52.160;-0.428;2023-10-19T00:16:52;2.13;;;1.30;;
20743;SDS011;56303;52.160;-0.428;2023-10-19T00:19:32;1.93;;;1.57;;
20743;SDS011;56303;52.160;-0.428;2023-10-19T00:22:06;1.83;;;1.70;;
20743;SDS011;56303;52.160;-0.428;2023-10-19T00:24:42;1.63;;;1.53;;
20743;SDS011;56303;52.160;-0.428;2023-10-19T00:27:10;1.53;;;1.43;;
20743;SDS011;56303;52.160;-0.428;2023-10-19T00:29:44;1.63;;;1.23;;
20743;SDS011;56303;52.160;-0.428;2023-10-19T00:32:22;1.27;;;1.17;;
20743;SDS011;56303;52.160;-0.428;2023-10-19T00:34:51;2.63;;;1.70;;
20743;SDS011;56303;52.160;-0.428;2023-10-19T00:37:19;1.23;;;1.10;;
20743;SDS011;56303;52.160;-0.428;2023-10-19T00:39:54;0.90;;;0.90;;
20743;SDS011;56303;52.160;-0.428;2023-10-19T00:42:22;2.03;;;1.07;;
20743;SDS011;56303;52.160;-0.428;2023-10-19T00:44:53;2.23;;;1.13;;
20743;SDS011;56303;52.160;-0.428;2023-10-19T00:47:28;0.87;;;0.80;;
20743;SDS011;56303;52.160;-0.428;2023-10-19T00:50:04;1.13;;;0.90;;
20743;SDS011;56303;52.160;-0.428;2023-10-19T00:52:38;0.73;;;0.73;;
20743;SDS011;56303;52.160;-0.428;2023-10-19T00:55:10;0.77;;;0.77;;
20743;SDS011;56303;52.160;-0.428;2023-10-19T00:57:40;0.90;;;0.90;;
20743;SDS011;56303;52.160;-0.428;2023-10-19T01:00:09;0.83;;;0.83;;
20743;SDS011;56303;52.160;-0.428;2023-10-19T01:02:39;0.70;;;0.70;;
20743;SDS011;56303;52.160;-0.428;2023-10-19T01:05:12;3.00;;;0.93;;
20743;SDS011;56303;52.160;-0.428;2023-10-19T01:07:40;1.60;;;0.80;;
20743;SDS011;56303;52.160;-0.428;2023-10-19T01:10:08;0.77;;;0.77;;
20743;SDS011;56303;52.160;-0.428;2023-10-19T01:12:38;1.23;;;1.10;;
20743;SDS011;56303;52.160;-0.428;2023-10-19T01:17:43;1.17;;;0.60;;
20743;SDS011;56303;52.160;-0.428;2023-10-19T01:20:18;0.97;;;0.97;;
20743;SDS011;56303;52.160;-0.428;2023-10-19T01:28:13;1.43;;;1.00;;
20743;SDS011;56303;52.160;-0.428;2023-10-19T01:30:44;0.70;;;0.67;;
20743;SDS011;56303;52.160;-0.428;2023-10-19T01:33:11;0.77;;;0.60;;
20743;SDS011;56303;52.160;-0.428;2023-10-19T01:35:47;1.43;;;1.00;;
20743;SDS011;56303;52.160;-0.428;2023-10-19T01:38:33;2.07;;;0.90;;
20743;SDS011;56303;52.160;-0.428;2023-10-19T01:41:03;1.17;;;0.70;;
20743;SDS011;56303;52.160;-0.428;2023-10-19T01:43:40;1.83;;;0.93;;
20743;SDS011;56303;52.160;-0.428;2023-10-19T01:46:09;2.20;;;1.10;;
20743;SDS011;56303;52.160;-0.428;2023-10-19T01:48:41;2.63;;;0.70;;
20743;SDS011;56303;52.160;-0.428;2023-10-19T01:51:10;2.27;;;0.70;;
20743;SDS011;56303;52.160;-0.428;2023-10-19T01:53:38;1.87;;;0.83;;
20743;SDS011;56303;52.160;-0.428;2023-10-19T01:56:06;1.60;;;1.00;;
20743;SDS011;56303;52.160;-0.428;2023-10-19T01:58:36;3.73;;;0.93;;
20743;SDS011;56303;52.160;-0.428;2023-10-19T02:01:04;2.57;;;0.90;;
20743;SDS011;56303;52.160;-0.428;2023-10-19T02:03:40;2.77;;;1.10;;
20743;SDS011;56303;52.160;-0.428;2023-10-19T02:06:09;2.07;;;1.00;;
20743;SDS011;56303;52.160;-0.428;2023-10-19T02:08:46;8.63;;;1.47;;
20743;SDS011;56303;52.160;-0.428;2023-10-19T02:11:21;3.47;;;0.90;;
20743;SDS011;56303;52.160;-0.428;2023-10-19T02:13:52;2.07;;;0.83;;
20743;SDS011;56303;52.160;-0.428;2023-10-19T02:16:21;3.70;;;1.30;;
20743;SDS011;56303;52.160;-0.428;2023-10-19T02:18:49;1.90;;;0.80;;
20743;SDS011;56303;52.160;-0.428;2023-10-19T02:21:17;2.37;;;0.60;;
20743;SDS011;56303;52.160;-0.428;2023-10-19T02:23:53;1.87;;;0.90;;
20743;SDS011;56303;52.160;-0.428;2023-10-19T02:26:20;3.20;;;0.87;;
20743;SDS011;56303;52.160;-0.428;2023-10-19T02:28:49;3.43;;;1.00;;
20743;SDS011;56303;52.160;-0.428;2023-10-19T02:31:19;1.57;;;1.03;;
20743;SDS011;56303;52.160;-0.428;2023-10-19T02:33:51;2.67;;;0.90;;
20743;SDS011;56303;52.160;-0.428;2023-10-19T02:36:25;2.83;;;0.80;;
20743;SDS011;56303;52.160;-0.428;2023-10-19T02:39:00;3.63;;;0.97;;
20743;SDS011;56303;52.160;-0.428;2023-10-19T02:41:43;4.47;;;0.90;;
20743;SDS011;56303;52.160;-0.428;2023-10-19T02:44:19;4.40;;;1.10;;
20743;SDS011;56303;52.160;-0.428;2023-10-19T02:46:50;1.77;;;0.70;;
20743;SDS011;56303;52.160;-0.428;2023-10-19T02:49:24;4.23;;;0.83;;
20743;SDS011;56303;52.160;-0.428;2023-10-19T02:51:52;1.73;;;0.80;;
20743;SDS011;56303;52.160;-0.428;2023-10-19T02:54:21;7.40;;;1.50;;
20743;SDS011;56303;52.160;-0.428;2023-10-19T02:56:51;1.60;;;0.90;;
20743;SDS011;56303;52.160;-0.428;2023-10-19T02:59:20;1.90;;;0.63;;
20743;SDS011;56303;52.160;-0.428;2023-10-19T03:01:50;2.20;;;0.70;;
20743;SDS011;56303;52.160;-0.428;2023-10-19T03:04:18;3.57;;;1.27;;
20743;SDS011;56303;52.160;-0.428;2023-10-19T03:06:47;3.97;;;1.00;;
20743;SDS011;56303;52.160;-0.428;2023-10-19T03:09:14;3.73;;;0.97;;
20743;SDS011;56303;52.160;-0.428;2023-10-19T03:11:55;3.63;;;0.80;;
20743;SDS011;56303;52.160;-0.428;2023-10-19T03:14:26;2.00;;;0.87;;
20743;SDS011;56303;52.160;-0.428;2023-10-19T03:16:53;4.23;;;1.17;;
20743;SDS011;56303;52.160;-0.428;2023-10-19T03:19:24;1.83;;;0.77;;
20743;SDS011;56303;52.160;-0.428;2023-10-19T03:21:51;2.37;;;1.00;;
20743;SDS011;56303;52.160;-0.428;2023-10-19T03:24:19;3.50;;;0.73;;
20743;SDS011;56303;52.160;-0.428;2023-10-19T03:27:05;2.80;;;0.90;;
20743;SDS011;56303;52.160;-0.428;2023-10-19T03:29:45;6.00;;;1.23;;
20743;SDS011;56303;52.160;-0.428;2023-10-19T03:32:14;2.70;;;1.00;;
20743;SDS011;56303;52.160;-0.428;2023-10-19T03:34:42;3.97;;;0.93;;
20743;SDS011;56303;52.160;-0.428;2023-10-19T03:37:13;2.30;;;0.80;;
20743;SDS011;56303;52.160;-0.428;2023-10-19T03:39:41;3.27;;;1.20;;
20743;SDS011;56303;52.160;-0.428;2023-10-19T03:42:12;2.47;;;0.73;;
20743;SDS011;56303;52.160;-0.428;2023-10-19T03:44:40;2.57;;;0.80;;
20743;SDS011;56303;52.160;-0.428;2023-10-19T03:47:07;3.83;;;1.27;;
20743;SDS011;56303;52.160;-0.428;2023-10-19T03:49:38;3.07;;;1.00;;
20743;SDS011;56303;52.160;-0.428;2023-10-19T03:52:06;2.87;;;1.30;;
20743;SDS011;56303;52.160;-0.428;2023-10-19T03:54:36;1.47;;;1.10;;
20743;SDS011;56303;52.160;-0.428;2023-10-19T03:57:08;5.83;;;1.77;;
20743;SDS011;56303;52.160;-0.428;2023-10-19T03:59:39;4.10;;;1.50;;
20743;SDS011;56303;52.160;-0.428;2023-10-19T04:02:07;5.57;;;1.70;;
20743;SDS011;56303;52.160;-0.428;2023-10-19T04:04:40;5.57;;;1.30;;
20743;SDS011;56303;52.160;-0.428;2023-10-19T04:07:10;5.37;;;1.63;;
20743;SDS011;56303;52.160;-0.428;2023-10-19T04:09:44;7.87;;;1.57;;
20743;SDS011;56303;52.160;-0.428;2023-10-19T04:12:26;3.80;;;1.63;;
20743;SDS011;56303;52.160;-0.428;2023-10-19T04:14:58;3.20;;;1.53;;
20743;SDS011;56303;52.160;-0.428;2023-10-19T04:17:46;7.70;;;2.03;;
20743;SDS011;56303;52.160;-0.428;2023-10-19T04:20:15;4.67;;;1.90;;
20743;SDS011;56303;52.160;-0.428;2023-10-19T04:22:46;6.87;;;2.40;;
20743;SDS011;56303;52.160;-0.428;2023-10-19T04:25:16;9.43;;;1.93;;
20743;SDS011;56303;52.160;-0.428;2023-10-19T04:27:51;7.30;;;2.17;;
20743;SDS011;56303;52.160;-0.428;2023-10-19T04:30:18;5.27;;;1.83;;
20743;SDS011;56303;52.160;-0.428;2023-10-19T04:32:50;5.03;;;1.70;;
20743;SDS011;56303;52.160;-0.428;2023-10-19T04:35:18;10.57;;;2.20;;
20743;SDS011;56303;52.160;-0.428;2023-10-19T04:37:51;6.17;;;2.70;;
20743;SDS011;56303;52.160;-0.428;2023-10-19T04:40:20;10.37;;;2.50;;
20743;SDS011;56303;52.160;-0.428;2023-10-19T04:42:52;8.63;;;2.60;;
20743;SDS011;56303;52.160;-0.428;2023-10-19T04:45:21;8.07;;;2.47;;
20743;SDS011;56303;52.160;-0.428;2023-10-19T04:47:51;5.97;;;2.40;;
20743;SDS011;56303;52.160;-0.428;2023-10-19T04:50:19;7.83;;;2.50;;
20743;SDS011;56303;52.160;-0.428;2023-10-19T04:52:46;7.07;;;2.50;;
20743;SDS011;56303;52.160;-0.428;2023-10-19T04:55:14;10.60;;;3.53;;
20743;SDS011;56303;52.160;-0.428;2023-10-19T04:57:41;9.83;;;2.87;;
20743;SDS011;56303;52.160;-0.428;2023-10-19T05:00:07;12.10;;;3.33;;
20743;SDS011;56303;52.160;-0.428;2023-10-19T05:02:40;8.60;;;3.10;;
20743;SDS011;56303;52.160;-0.428;2023-10-19T05:05:08;8.13;;;3.43;;
20743;SDS011;56303;52.160;-0.428;2023-10-19T05:07:35;10.97;;;3.40;;
20743;SDS011;56303;52.160;-0.428;2023-10-19T05:10:02;12.07;;;4.10;;
20743;SDS011;56303;52.160;-0.428;2023-10-19T05:12:31;11.03;;;3.50;;
20743;SDS011;56303;52.160;-0.428;2023-10-19T05:14:58;14.50;;;4.20;;
20743;SDS011;56303;52.160;-0.428;2023-10-19T05:17:25;9.40;;;3.10;;
20743;SDS011;56303;52.160;-0.428;2023-10-19T05:19:53;11.50;;;3.43;;
20743;SDS011;56303;52.160;-0.428;2023-10-19T05:22:20;9.30;;;3.13;;
20743;SDS011;56303;52.160;-0.428;2023-10-19T05:24:51;8.70;;;3.50;;
20743;SDS011;56303;52.160;-0.428;2023-10-19T05:27:18;12.73;;;4.30;;
20743;SDS011;56303;52.160;-0.428;2023-10-19T05:29:46;10.23;;;3.40;;
20743;SDS011;56303;52.160;-0.428;2023-10-19T05:32:13;13.47;;;4.27;;
20743;SDS011;56303;52.160;-0.428;2023-10-19T05:34:40;11.87;;;3.30;;
20743;SDS011;56303;52.160;-0.428;2023-10-19T05:37:07;15.20;;;3.57;;
20743;SDS011;56303;52.160;-0.428;2023-10-19T05:39:35;11.63;;;3.30;;
20743;SDS011;56303;52.160;-0.428;2023-10-19T05:42:03;13.37;;;3.27;;
20743;SDS011;56303;52.160;-0.428;2023-10-19T05:44:30;11.47;;;4.27;;
20743;SDS011;56303;52.160;-0.428;2023-10-19T05:46:58;12.53;;;3.70;;
20743;SDS011;56303;52.160;-0.428;2023-10-19T05:49:26;14.27;;;3.90;;
20743;SDS011;56303;52.160;-0.428;2023-10-19T05:51:56;10.43;;;3.47;;
20743;SDS011;56303;52.160;-0.428;2023-10-19T05:54:23;13.50;;;3.80;;
20743;SDS011;56303;52.160;-0.428;2023-10-19T05:56:54;9.60;;;3.57;;
20743;SDS011;56303;52.160;-0.428;2023-10-19T05:59:21;11.30;;;3.97;;
20743;SDS011;56303;52.160;-0.428;2023-10-19T06:01:49;13.20;;;3.53;;
20743;SDS011;56303;52.160;-0.428;2023-10-19T06:04:18;14.73;;;3.77;;
20743;SDS011;56303;52.160;-0.428;2023-10-19T06:06:47;10.97;;;4.03;;
20743;SDS011;56303;52.160;-0.428;2023-10-19T06:09:15;12.77;;;3.57;;
20743;SDS011;56303;52.160;-0.428;2023-10-19T06:11:43;14.80;;;4.43;;
20743;SDS011;56303;52.160;-0.428;2023-10-19T06:14:10;12.33;;;3.53;;
20743;SDS011;56303;52.160;-0.428;2023-10-19T06:16:37;13.40;;;3.70;;
20743;SDS011;56303;52.160;-0.428;2023-10-19T06:19:04;11.53;;;3.57;;
20743;SDS011;56303;52.160;-0.428;2023-10-19T06:21:32;12.07;;;3.93;;
20743;SDS011;56303;52.160;-0.428;2023-10-19T06:24:00;14.63;;;3.80;;
20743;SDS011;56303;52.160;-0.428;2023-10-19T06:26:27;12.40;;;3.33;;
20743;SDS011;56303;52.160;-0.428;2023-10-19T06:28:54;8.60;;;3.10;;
20743;SDS011;56303;52.160;-0.428;2023-10-19T06:31:30;8.97;;;3.03;;
20743;SDS011;56303;52.160;-0.428;2023-10-19T06:33:57;9.77;;;3.13;;
20743;SDS011;56303;52.160;-0.428;2023-10-19T06:36:24;12.20;;;3.30;;
20743;SDS011;56303;52.160;-0.428;2023-10-19T06:38:55;8.47;;;2.40;;
20743;SDS011;56303;52.160;-0.428;2023-10-19T06:41:22;7.13;;;2.60;;
20743;SDS011;56303;52.160;-0.428;2023-10-19T06:43:50;9.50;;;2.93;;
20743;SDS011;56303;52.160;-0.428;2023-10-19T06:46:17;6.07;;;2.57;;
20743;SDS011;56303;52.160;-0.428;2023-10-19T06:48:44;8.07;;;2.50;;
20743;SDS011;56303;52.160;-0.428;2023-10-19T06:51:11;7.07;;;2.60;;
20743;SDS011;56303;52.160;-0.428;2023-10-19T06:53:38;9.63;;;2.63;;
20743;SDS011;56303;52.160;-0.428;2023-10-19T06:56:05;10.03;;;2.20;;
20743;SDS011;56303;52.160;-0.428;2023-10-19T06:58:33;9.93;;;3.33;;
20743;SDS011;56303;52.160;-0.428;2023-10-19T07:01:00;8.37;;;1.80;;
20743;SDS011;56303;52.160;-0.428;2023-10-19T07:03:32;5.97;;;1.97;;
20743;SDS011;56303;52.160;-0.428;2023-10-19T07:06:00;4.67;;;2.10;;
20743;SDS011;56303;52.160;-0.428;2023-10-19T07:08:34;6.00;;;2.47;;
20743;SDS011;56303;52.160;-0.428;2023-10-19T07:11:01;6.07;;;2.70;;
20743;SDS011;56303;52.160;-0.428;2023-10-19T07:13:28;6.43;;;2.10;;
20743;SDS011;56303;52.160;-0.428;2023-10-19T07:15:59;6.27;;;1.83;;
20743;SDS011;56303;52.160;-0.428;2023-10-19T07:18:27;6.77;;;2.30;;
20743;SDS011;56303;52.160;-0.428;2023-10-19T07:20:55;6.20;;;2.40;;
20743;SDS011;56303;52.160;-0.428;2023-10-19T07:23:29;10.07;;;2.30;;
20743;SDS011;56303;52.160;-0.428;2023-10-19T07:25:56;10.80;;;3.13;;
20743;SDS011;56303;52.160;-0.428;2023-10-19T07:28:26;5.77;;;2.10;;
20743;SDS011;56303;52.160;-0.428;2023-10-19T07:30:54;7.07;;;2.40;;
20743;SDS011;56303;52.160;-0.428;2023-10-19T07:33:22;10.43;;;2.43;;
20743;SDS011;56303;52.160;-0.428;2023-10-19T07:35:49;7.03;;;2.97;;
20743;SDS011;56303;52.160;-0.428;2023-10-19T07:38:26;9.50;;;3.27;;
20743;SDS011;56303;52.160;-0.428;2023-10-19T07:40:55;6.00;;;2.03;;
20743;SDS011;56303;52.160;-0.428;2023-10-19T07:43:22;7.90;;;2.87;;
20743;SDS011;56303;52.160;-0.428;2023-10-19T07:45:49;6.63;;;1.90;;
20743;SDS011;56303;52.160;-0.428;2023-10-19T07:48:16;7.10;;;2.10;;
20743;SDS011;56303;52.160;-0.428;2023-10-19T07:50:43;11.33;;;2.90;;
20743;SDS011;56303;52.160;-0.428;2023-10-19T07:53:11;8.33;;;2.80;;
20743;SDS011;56303;52.160;-0.428;2023-10-19T07:55:38;7.20;;;2.23;;
20743;SDS011;56303;52.160;-0.428;2023-10-19T07:58:06;10.67;;;3.27;;
20743;SDS011;56303;52.160;-0.428;2023-10-19T08:00:33;12.57;;;3.33;;
20743;SDS011;56303;52.160;-0.428;2023-10-19T08:03:01;14.20;;;3.83;;
20743;SDS011;56303;52.160;-0.428;2023-10-19T08:05:29;10.90;;;3.13;;
20743;SDS011;56303;52.160;-0.428;2023-10-19T08:08:00;10.40;;;3.13;;
20743;SDS011;56303;52.160;-0.428;2023-10-19T08:10:30;13.20;;;3.80;;
20743;SDS011;56303;52.160;-0.428;2023-10-19T08:12:58;11.60;;;3.60;;
20743;SDS011;56303;52.160;-0.428;2023-10-19T08:15:26;15.60;;;4.60;;
20743;SDS011;56303;52.160;-0.428;2023-10-19T08:17:56;13.57;;;4.53;;
20743;SDS011;56303;52.160;-0.428;2023-10-19T08:20:24;15.90;;;4.43;;
20743;SDS011;56303;52.160;-0.428;2023-10-19T08:22:58;13.37;;;4.20;;
20743;SDS011;56303;52.160;-0.428;2023-10-19T08:25:28;12.50;;;4.60;;
20743;SDS011;56303;52.160;-0.428;2023-10-19T08:28:13;13.17;;;4.43;;
20743;SDS011;56303;52.160;-0.428;2023-10-19T08:30:41;15.07;;;5.07;;
20743;SDS011;56303;52.160;-0.428;2023-10-19T08:33:08;16.80;;;5.10;;
20743;SDS011;56303;52.160;-0.428;2023-10-19T08:35:35;15.23;;;3.60;;
20743;SDS011;56303;52.160;-0.428;2023-10-19T08:38:02;21.77;;;5.43;;
20743;SDS011;56303;52.160;-0.428;2023-10-19T08:40:36;16.20;;;4.67;;
20743;SDS011;56303;52.160;-0.428;2023-10-19T08:43:04;15.73;;;4.80;;
20743;SDS011;56303;52.160;-0.428;2023-10-19T08:45:31;11.70;;;4.17;;
20743;SDS011;56303;52.160;-0.428;2023-10-19T08:48:01;17.70;;;4.33;;
20743;SDS011;56303;52.160;-0.428;2023-10-19T08:50:32;18.77;;;5.00;;
20743;SDS011;56303;52.160;-0.428;2023-10-19T08:53:01;13.13;;;3.67;;
20743;SDS011;56303;52.160;-0.428;2023-10-19T08:55:29;13.57;;;4.70;;
20743;SDS011;56303;52.160;-0.428;2023-10-19T08:58:15;13.50;;;4.53;;
20743;SDS011;56303;52.160;-0.428;2023-10-19T09:00:51;16.63;;;4.53;;
20743;SDS011;56303;52.160;-0.428;2023-10-19T09:03:23;11.43;;;3.87;;
20743;SDS011;56303;52.160;-0.428;2023-10-19T09:05:52;14.97;;;5.33;;
20743;SDS011;56303;52.160;-0.428;2023-10-19T09:08:20;19.83;;;5.03;;
20743;SDS011;56303;52.160;-0.428;2023-10-19T09:10:49;14.17;;;4.33;;
20743;SDS011;56303;52.160;-0.428;2023-10-19T09:13:21;16.70;;;4.57;;
20743;SDS011;56303;52.160;-0.428;2023-10-19T09:15:51;16.30;;;4.93;;
20743;SDS011;56303;52.160;-0.428;2023-10-19T09:18:23;15.47;;;5.27;;
20743;SDS011;56303;52.160;-0.428;2023-10-19T09:20:55;13.07;;;4.60;;
20743;SDS011;56303;52.160;-0.428;2023-10-19T09:23:29;15.73;;;4.30;;
20743;SDS011;56303;52.160;-0.428;2023-10-19T09:25:58;13.20;;;4.90;;
20743;SDS011;56303;52.160;-0.428;2023-10-19T09:28:30;16.60;;;4.63;;
20743;SDS011;56303;52.160;-0.428;2023-10-19T09:31:00;14.43;;;4.77;;
20743;SDS011;56303;52.160;-0.428;2023-10-19T09:33:30;11.20;;;4.40;;
20743;SDS011;56303;52.160;-0.428;2023-10-19T09:36:01;10.10;;;4.00;;
20743;SDS011;56303;52.160;-0.428;2023-10-19T09:38:31;12.87;;;3.93;;
20743;SDS011;56303;52.160;-0.428;2023-10-19T09:41:00;9.37;;;3.77;;
20743;SDS011;56303;52.160;-0.428;2023-10-19T09:43:35;10.53;;;3.97;;
20743;SDS011;56303;52.160;-0.428;2023-10-19T09:46:06;16.00;;;4.87;;
20743;SDS011;56303;52.160;-0.428;2023-10-19T09:48:45;15.50;;;3.90;;
20743;SDS011;56303;52.160;-0.428;2023-10-19T09:51:14;14.37;;;4.67;;
20743;SDS011;56303;52.160;-0.428;2023-10-19T09:53:49;13.17;;;4.27;;
20743;SDS011;56303;52.160;-0.428;2023-10-19T09:56:46;15.90;;;4.37;;
20743;SDS011;56303;52.160;-0.428;2023-10-19T09:59:26;14.40;;;4.63;;
20743;SDS011;56303;52.160;-0.428;2023-10-19T10:04:31;11.00;;;3.80;;
20743;SDS011;56303;52.160;-0.428;2023-10-19T10:06:59;12.87;;;4.37;;
20743;SDS011;56303;52.160;-0.428;2023-10-19T10:09:26;9.00;;;3.23;;
20743;SDS011;56303;52.160;-0.428;2023-10-19T10:11:55;12.53;;;4.00;;
20743;SDS011;56303;52.160;-0.428;2023-10-19T10:14:23;11.27;;;4.17;;
20743;SDS011;56303;52.160;-0.428;2023-10-19T10:17:01;10.63;;;4.60;;
20743;SDS011;56303;52.160;-0.428;2023-10-19T10:19:29;11.93;;;3.87;;
20743;SDS011;56303;52.160;-0.428;2023-10-19T10:22:30;13.33;;;4.53;;
20743;SDS011;56303;52.160;-0.428;2023-10-19T10:24:53;13.57;;;4.20;;
20743;SDS011;56303;52.160;-0.428;2023-10-19T10:27:23;10.33;;;3.47;;
20743;SDS011;56303;52.160;-0.428;2023-10-19T10:29:55;14.03;;;4.57;;
20743;SDS011;56303;52.160;-0.428;2023-10-19T10:38:06;14.40;;;3.70;;
20743;SDS011;56303;52.160;-0.428;2023-10-19T10:40:50;9.30;;;3.60;;
20743;SDS011;56303;52.160;-0.428;2023-10-19T10:43:18;12.43;;;4.70;;
20743;SDS011;56303;52.160;-0.428;2023-10-19T10:45:45;9.93;;;3.63;;
20743;SDS011;56303;52.160;-0.428;2023-10-19T10:48:15;11.67;;;4.07;;
20743;SDS011;56303;52.160;-0.428;2023-10-19T10:50:45;14.83;;;4.93;;
20743;SDS011;56303;52.160;-0.428;2023-10-19T10:53:13;9.73;;;3.80;;
20743;SDS011;56303;52.160;-0.428;2023-10-19T10:55:46;10.03;;;3.93;;
20743;SDS011;56303;52.160;-0.428;2023-10-19T10:58:17;9.20;;;2.57;;
20743;SDS011;56303;52.160;-0.428;2023-10-19T11:00:44;7.50;;;3.43;;
20743;SDS011;56303;52.160;-0.428;2023-10-19T11:03:18;13.03;;;3.87;;
20743;SDS011;56303;52.160;-0.428;2023-10-19T11:05:45;9.60;;;2.87;;
20743;SDS011;56303;52.160;-0.428;2023-10-19T11:08:13;9.93;;;3.40;;
20743;SDS011;56303;52.160;-0.428;2023-10-19T11:10:47;14.03;;;4.07;;
20743;SDS011;56303;52.160;-0.428;2023-10-19T11:13:16;10.70;;;3.67;;
20743;SDS011;56303;52.160;-0.428;2023-10-19T11:15:53;13.47;;;3.27;;
20743;SDS011;56303;52.160;-0.428;2023-10-19T11:18:28;11.33;;;3.90;;
20743;SDS011;56303;52.160;-0.428;2023-10-19T11:20:56;7.47;;;3.40;;
20743;SDS011;56303;52.160;-0.428;2023-10-19T11:26:09;9.00;;;3.67;;
20743;SDS011;56303;52.160;-0.428;2023-10-19T11:28:38;9.00;;;2.97;;
20743;SDS011;56303;52.160;-0.428;2023-10-19T11:33:43;9.17;;;3.43;;
20743;SDS011;56303;52.160;-0.428;2023-10-19T11:36:15;8.43;;;3.50;;
20743;SDS011;56303;52.160;-0.428;2023-10-19T11:38:44;7.70;;;2.90;;
20743;SDS011;56303;52.160;-0.428;2023-10-19T11:41:13;8.73;;;2.90;;
20743;SDS011;56303;52.160;-0.428;2023-10-19T11:43:42;7.27;;;2.47;;
20743;SDS011;56303;52.160;-0.428;2023-10-19T11:46:10;8.80;;;2.80;;
20743;SDS011;56303;52.160;-0.428;2023-10-19T11:48:39;7.97;;;2.57;;
20743;SDS011;56303;52.160;-0.428;2023-10-19T11:51:06;11.10;;;3.43;;
20743;SDS011;56303;52.160;-0.428;2023-10-19T11:53:34;12.40;;;2.97;;
20743;SDS011;56303;52.160;-0.428;2023-10-19T11:56:03;8.97;;;3.13;;
20743;SDS011;56303;52.160;-0.428;2023-10-19T11:58:32;8.67;;;2.87;;
20743;SDS011;56303;52.160;-0.428;2023-10-19T12:01:04;5.40;;;2.50;;
20743;SDS011;56303;52.160;-0.428;2023-10-19T12:03:43;9.17;;;2.50;;
20743;SDS011;56303;52.160;-0.428;2023-10-19T12:06:15;7.83;;;2.70;;
20743;SDS011;56303;52.160;-0.428;2023-10-19T12:08:46;6.30;;;2.87;;
20743;SDS011;56303;52.160;-0.428;2023-10-19T12:11:13;9.60;;;2.83;;
20743;SDS011;56303;52.160;-0.428;2023-10-19T12:13:50;9.73;;;2.97;;
20743;SDS011;56303;52.160;-0.428;2023-10-19T12:16:17;8.43;;;2.93;;
20743;SDS011;56303;52.160;-0.428;2023-10-19T12:18:44;7.17;;;3.10;;
20743;SDS011;56303;52.160;-0.428;2023-10-19T12:21:12;10.70;;;3.60;;
20743;SDS011;56303;52.160;-0.428;2023-10-19T12:23:40;6.67;;;2.97;;
20743;SDS011;56303;52.160;-0.428;2023-10-19T12:26:09;9.93;;;3.13;;
20743;SDS011;56303;52.160;-0.428;2023-10-19T12:28:40;10.63;;;3.90;;
20743;SDS011;56303;52.160;-0.428;2023-10-19T12:31:07;13.37;;;4.13;;
20743;SDS011;56303;52.160;-0.428;2023-10-19T12:33:38;10.17;;;3.53;;
20743;SDS011;56303;52.160;-0.428;2023-10-19T12:36:05;9.77;;;3.37;;
20743;SDS011;56303;52.160;-0.428;2023-10-19T12:38:52;10.17;;;3.17;;
20743;SDS011;56303;52.160;-0.428;2023-10-19T12:41:21;13.60;;;3.67;;
20743;SDS011;56303;52.160;-0.428;2023-10-19T12:43:48;8.77;;;3.30;;
20743;SDS011;56303;52.160;-0.428;2023-10-19T12:46:19;8.82;;;4.25;;
20743;SDS011;56303;52.160;-0.428;2023-10-19T12:48:46;7.85;;;3.40;;
20743;SDS011;56303;52.160;-0.428;2023-10-19T12:51:13;11.30;;;3.90;;
20743;SDS011;56303;52.160;-0.428;2023-10-19T12:53:41;11.30;;;3.53;;
20743;SDS011;56303;52.160;-0.428;2023-10-19T12:56:07;8.80;;;3.60;;
20743;SDS011;56303;52.160;-0.428;2023-10-19T12:58:37;7.70;;;3.83;;
20743;SDS011;56303;52.160;-0.428;2023-10-19T13:01:04;10.27;;;3.90;;
20743;SDS011;56303;52.160;-0.428;2023-10-19T13:03:31;12.47;;;3.93;;
20743;SDS011;56303;52.160;-0.428;2023-10-19T13:05:59;11.47;;;3.70;;
20743;SDS011;56303;52.160;-0.428;2023-10-19T13:08:30;11.17;;;4.03;;
20743;SDS011;56303;52.160;-0.428;2023-10-19T13:10:57;10.13;;;4.07;;
20743;SDS011;56303;52.160;-0.428;2023-10-19T13:13:37;9.97;;;3.27;;
20743;SDS011;56303;52.160;-0.428;2023-10-19T13:16:05;9.63;;;3.30;;
20743;SDS011;56303;52.160;-0.428;2023-10-19T13:18:33;9.63;;;3.00;;
20743;SDS011;56303;52.160;-0.428;2023-10-19T13:21:00;13.00;;;4.40;;
20743;SDS011;56303;52.160;-0.428;2023-10-19T13:23:31;10.97;;;3.50;;
20743;SDS011;56303;52.160;-0.428;2023-10-19T13:26:02;9.67;;;3.23;;
20743;SDS011;56303;52.160;-0.428;2023-10-19T13:28:41;10.60;;;3.50;;
20743;SDS011;56303;52.160;-0.428;2023-10-19T13:31:09;13.67;;;3.90;;
20743;SDS011;56303;52.160;-0.428;2023-10-19T13:33:36;12.07;;;4.07;;
20743;SDS011;56303;52.160;-0.428;2023-10-19T13:36:03;11.30;;;3.73;;
20743;SDS011;56303;52.160;-0.428;2023-10-19T13:38:32;9.93;;;3.80;;
20743;SDS011;56303;52.160;-0.428;2023-10-19T13:41:02;8.33;;;3.40;;
20743;SDS011;56303;52.160;-0.428;2023-10-19T13:43:34;10.00;;;3.73;;
20743;SDS011;56303;52.160;-0.428;2023-10-19T13:46:04;14.60;;;4.70;;
20743;SDS011;56303;52.160;-0.428;2023-10-19T13:48:32;12.33;;;4.37;;
20743;SDS011;56303;52.160;-0.428;2023-10-19T13:50:59;12.83;;;3.87;;
20743;SDS011;56303;52.160;-0.428;2023-10-19T13:53:40;9.20;;;3.57;;
20743;SDS011;56303;52.160;-0.428;2023-10-19T13:56:12;15.00;;;5.00;;
20743;SDS011;56303;52.160;-0.428;2023-10-19T13:58:41;10.53;;;5.17;;
20743;SDS011;56303;52.160;-0.428;2023-10-19T14:01:08;10.83;;;6.00;;
20743;SDS011;56303;52.160;-0.428;2023-10-19T14:03:37;11.97;;;5.20;;
20743;SDS011;56303;52.160;-0.428;2023-10-19T14:06:05;14.37;;;5.17;;
20743;SDS011;56303;52.160;-0.428;2023-10-19T14:08:38;11.23;;;4.10;;
20743;SDS011;56303;52.160;-0.428;2023-10-19T14:11:05;12.60;;;4.40;;
20743;SDS011;56303;52.160;-0.428;2023-10-19T14:13:33;12.63;;;4.53;;
20743;SDS011;56303;52.160;-0.428;2023-10-19T14:16:05;12.33;;;4.23;;
20743;SDS011;56303;52.160;-0.428;2023-10-19T14:18:34;11.87;;;4.20;;
20743;SDS011;56303;52.160;-0.428;2023-10-19T14:21:11;11.00;;;4.20;;
20743;SDS011;56303;52.160;-0.428;2023-10-19T14:23:43;11.90;;;4.53;;
20743;SDS011;56303;52.160;-0.428;2023-10-19T14:26:11;10.07;;;4.17;;
20743;SDS011;56303;52.160;-0.428;2023-10-19T14:28:38;8.60;;;3.90;;
20743;SDS011;56303;52.160;-0.428;2023-10-19T14:31:07;13.30;;;4.70;;
20743;SDS011;56303;52.160;-0.428;2023-10-19T14:33:34;8.90;;;3.97;;
20743;SDS011;56303;52.160;-0.428;2023-10-19T14:36:03;13.83;;;4.67;;
20743;SDS011;56303;52.160;-0.428;2023-10-19T14:38:30;10.73;;;3.90;;
20743;SDS011;56303;52.160;-0.428;2023-10-19T14:40:58;14.50;;;4.57;;
20743;SDS011;56303;52.160;-0.428;2023-10-19T14:43:25;9.87;;;3.83;;
20743;SDS011;56303;52.160;-0.428;2023-10-19T14:45:52;8.63;;;3.90;;
20743;SDS011;56303;52.160;-0.428;2023-10-19T14:48:19;11.70;;;3.37;;
20743;SDS011;56303;52.160;-0.428;2023-10-19T14:50:46;9.07;;;3.37;;
20743;SDS011;56303;52.160;-0.428;2023-10-19T14:53:13;10.13;;;3.53;;
20743;SDS011;56303;52.160;-0.428;2023-10-19T14:55:42;10.93;;;3.40;;
20743;SDS011;56303;52.160;-0.428;2023-10-19T14:58:11;11.47;;;3.10;;
20743;SDS011;56303;52.160;-0.428;2023-10-19T15:00:38;10.57;;;3.07;;
20743;SDS011;56303;52.160;-0.428;2023-10-19T15:03:09;8.97;;;2.83;;
20743;SDS011;56303;52.160;-0.428;2023-10-19T15:05:36;10.00;;;4.03;;
20743;SDS011;56303;52.160;-0.428;2023-10-19T15:08:04;11.27;;;3.43;;